Time;durP1;ratioP1;P1;durP2;ratioP2;P2;SDS_P1;SDS_P2;PMS_P1;PMS_P2;Temp;Humidity;BMP_temperature;BMP_pressure;BME280_temperature;BME280_humidity;BME280_pressure;Samples;Min_cycle;Max_cycle;Signal;HPM_P1;HPM_P2
2022/01/28 00:01:39;;;;;;;28.58;13.90;;;;;;;0.00;59.87;100275.19;3114997;28;20100;-61
2022/01/28 00:03:11;;;;;;;34.53;14.43;;;;;;;0.00;60.02;100270.06;3116396;28;20089;-61
2022/01/28 00:04:42;;;;;;;30.85;14.50;;;;;;;-0.01;59.84;100273.44;3122175;28;20071;-61
2022/01/28 00:06:15;;;;;;;27.30;12.98;;;;;;;-0.02;59.83;100266.63;3117704;28;20115;-60
2022/01/28 00:07:46;;;;;;;33.83;14.50;;;;;;;-0.04;59.73;100266.59;3118569;28;20814;-61
2022/01/28 00:09:18;;;;;;;32.72;13.65;;;;;;;-0.04;59.84;100266.59;3117432;28;20140;-61
2022/01/28 00:10:53;;;;;;;32.25;15.43;;;;;;;-0.03;59.79;100265.78;3117536;28;20057;-61
2022/01/28 00:12:25;;;;;;;35.35;14.75;;;;;;;-0.07;59.97;100264.03;3120626;28;20152;-61
2022/01/28 00:14:10;;;;;;;32.80;15.25;;;;;;;-0.06;59.95;100267.44;3112981;28;20106;-61
2022/01/28 00:16:00;;;;;;;32.90;15.55;;;;;;;-0.09;59.91;100260.63;3120582;28;20114;-61
2022/01/28 00:38:01;;;;;;;24.02;12.18;;;;;;;-0.28;60.28;100251.13;3121401;28;20053;-62
2022/01/28 00:39:32;;;;;;;26.85;12.77;;;;;;;-0.32;60.30;100252.81;3125388;28;20048;-62
2022/01/28 00:41:04;;;;;;;26.85;12.38;;;;;;;-0.28;60.27;100251.13;3126112;28;20049;-62
2022/01/28 00:42:37;;;;;;;27.48;13.70;;;;;;;-0.28;60.34;100249.41;3121123;28;20493;-62
2022/01/28 00:44:08;;;;;;;27.40;13.05;;;;;;;-0.28;60.39;100243.44;3128656;28;20434;-62
2022/01/28 00:45:40;;;;;;;30.08;14.13;;;;;;;-0.25;60.21;100240.91;3123357;28;20084;-62
2022/01/28 00:47:11;;;;;;;25.20;13.13;;;;;;;-0.24;60.21;100233.25;3124028;28;20056;-62
2022/01/28 00:48:43;;;;;;;24.45;12.07;;;;;;;-0.22;60.08;100237.50;3128899;28;20049;-62
2022/01/28 00:50:16;;;;;;;29.23;13.00;;;;;;;-0.36;60.05;100215.22;3120341;28;20060;-62
2022/01/28 00:51:48;;;;;;;29.92;12.75;;;;;;;-0.24;60.24;100242.59;3124753;28;20057;-61
2022/01/28 00:53:20;;;;;;;26.80;12.95;;;;;;;-0.25;60.22;100231.50;3126059;28;20442;-61
2022/01/28 00:54:51;;;;;;;28.02;12.07;;;;;;;-0.21;60.20;100228.97;3122065;28;20041;-61
2022/01/28 00:56:23;;;;;;;28.60;12.38;;;;;;;-0.28;60.32;100215.28;3127459;28;20041;-61
2022/01/28 00:57:56;;;;;;;21.90;10.93;;;;;;;-0.21;60.31;100223.84;3123534;28;20050;-61
2022/01/28 00:59:27;;;;;;;22.77;11.27;;;;;;;-0.24;60.23;100224.69;3128274;28;20045;-61
2022/01/28 01:00:59;;;;;;;22.73;10.85;;;;;;;-0.24;60.06;100223.00;3128966;28;20149;-61
2022/01/28 01:02:31;;;;;;;23.77;11.93;;;;;;;-0.22;60.18;100217.03;3120144;28;20083;-61
2022/01/28 01:04:02;;;;;;;26.27;11.98;;;;;;;-0.22;60.06;100222.16;3127853;28;20048;-62
2022/01/28 01:05:34;;;;;;;23.15;11.63;;;;;;;-0.23;60.28;100221.28;3126925;28;20514;-61
2022/01/28 01:07:05;;;;;;;22.85;11.25;;;;;;;-0.25;60.16;100218.72;3123252;28;20102;-61
2022/01/28 01:08:37;;;;;;;25.25;11.40;;;;;;;-0.25;60.17;100212.75;3128819;28;20455;-61
2022/01/28 01:10:11;;;;;;;23.42;10.90;;;;;;;-0.42;60.25;100179.38;3124172;28;20489;-61
2022/01/28 01:11:43;;;;;;;23.65;10.35;;;;;;;-0.28;60.18;100212.72;3123212;28;20057;-61
2022/01/28 01:13:16;;;;;;;24.08;11.38;;;;;;;-0.28;60.32;100203.34;3130990;28;20258;-60
2022/01/28 01:14:47;;;;;;;;;;;;;;;-0.46;60.33;100205.81;3121252;28;20123;-61
2022/01/28 01:16:25;;;;;;;23.23;11.45;;;;;;;-0.42;60.58;100202.41;3128406;28;20012;-60
2022/01/28 01:18:02;;;;;;;26.58;11.27;;;;;;;-0.41;60.44;100191.34;3126763;28;20056;-61
2022/01/28 01:19:39;;;;;;;25.50;11.63;;;;;;;-0.37;60.58;100187.94;3123981;28;20144;-60
2022/01/28 01:21:16;;;;;;;24.33;11.02;;;;;;;-0.37;60.39;100177.69;3129808;28;20055;-60
2022/01/28 01:22:54;;;;;;;25.23;11.43;;;;;;;-0.39;60.44;100187.06;3131222;28;20506;-60
2022/01/28 01:24:28;;;;;;;24.08;11.68;;;;;;;-0.38;60.41;100181.13;3129473;28;20049;-61
2022/01/28 01:26:08;;;;;;;22.83;11.15;;;;;;;-0.39;60.38;100175.97;3121555;28;20594;-60
2022/01/28 01:27:39;;;;;;;20.00;10.05;;;;;;;-0.41;60.18;100165.75;3123567;28;20064;-60
2022/01/28 01:29:14;;;;;;;25.05;11.10;;;;;;;-0.36;60.30;100169.16;3124915;28;20480;-60
2022/01/28 01:30:46;;;;;;;21.80;10.70;;;;;;;-0.38;60.29;100152.13;3121722;28;20089;-61
2022/01/28 01:32:18;;;;;;;21.57;10.20;;;;;;;-0.40;60.26;100149.53;3126352;28;20057;-61
2022/01/28 01:33:56;;;;;;;23.60;11.13;;;;;;;-0.40;60.35;100149.53;3124263;28;20312;-60
2022/01/28 01:35:28;;;;;;;21.17;9.75;;;;;;;-0.43;60.17;100141.00;3123338;28;20057;-60
2022/01/28 01:36:59;;;;;;;22.98;10.68;;;;;;;-0.40;60.18;100143.56;3127872;28;20541;-60
2022/01/28 01:38:34;;;;;;;21.88;10.30;;;;;;;-0.41;60.09;100142.72;3126341;28;20053;-60
2022/01/28 01:40:07;;;;;;;19.60;9.98;;;;;;;-0.40;59.98;100138.47;3125979;28;20080;-60
2022/01/28 01:41:43;;;;;;;19.23;10.05;;;;;;;-0.43;60.09;100136.75;3126658;28;20107;-60
2022/01/28 01:43:21;;;;;;;21.15;9.20;;;;;;;-0.45;60.04;100138.41;3120737;28;20481;-63
2022/01/28 01:52:00;;;;;;;21.38;10.07;;;;;;;-0.49;60.10;100141.81;3120282;28;20059;-60
2022/01/28 01:52:43;;;;;;;23.35;10.93;;;;;;;-0.57;60.40;100117.91;3127414;28;20045;-61
2022/01/28 01:54:15;;;;;;;24.10;10.57;;;;;;;-0.57;60.02;100121.31;3124891;28;20057;-61
2022/01/28 01:55:48;;;;;;;21.90;10.02;;;;;;;-0.57;60.29;100117.91;3123397;28;20102;-61
2022/01/28 01:57:20;;;;;;;22.33;11.20;;;;;;;-0.54;60.17;100115.34;3129181;28;20103;-60
2022/01/28 01:58:52;;;;;;;23.73;10.40;;;;;;;-0.53;60.19;100099.19;3120898;28;20049;-61
2022/01/28 02:00:26;;;;;;;21.00;10.85;;;;;;;-0.52;60.19;100101.72;3122375;28;20517;-61
2022/01/28 02:01:57;;;;;;;;;;;;;;;-0.73;60.25;100093.97;3124979;28;20115;-61
2022/01/28 02:03:30;;;;;;;22.38;10.18;;;;;;;-0.68;60.32;100094.84;3125936;28;19983;-60
2022/01/28 02:05:03;;;;;;;26.17;10.75;;;;;;;-0.81;60.49;100067.47;3128219;28;20110;-60
2022/01/28 02:06:37;;;;;;;24.88;10.25;;;;;;;-0.63;60.49;100093.13;3119473;28;20094;-60
2022/01/28 02:08:10;;;;;;;19.38;10.30;;;;;;;-0.62;60.34;100097.44;3127272;28;20056;-60
2022/01/28 02:09:42;;;;;;;18.83;9.82;;;;;;;-0.65;60.23;100093.97;3124621;28;20145;-60
2022/01/28 02:11:14;;;;;;;20.98;10.07;;;;;;;-0.60;60.37;100094.88;3121462;28;20091;-60
2022/01/28 02:12:50;;;;;;;17.30;8.70;;;;;;;-0.58;60.15;100086.34;3128069;28;20045;-60
2022/01/28 02:14:22;;;;;;;19.65;9.68;;;;;;;-0.61;60.35;100081.22;3131537;28;20060;-60
2022/01/28 02:15:57;;;;;;;17.55;8.63;;;;;;;-0.59;60.13;100073.53;3128613;28;20442;-61
2022/01/28 02:17:29;;;;;;;22.60;9.68;;;;;;;-0.60;60.16;100079.53;3127038;28;20049;-60
2022/01/28 02:19:01;;;;;;;22.25;9.43;;;;;;;-0.59;60.19;100073.53;3124281;28;20734;-60
2022/01/28 02:20:36;;;;;;;19.27;8.70;;;;;;;-0.59;60.02;100071.88;3128487;28;20049;-60
2022/01/28 02:22:09;;;;;;;17.42;8.80;;;;;;;-0.60;59.90;100072.69;3123962;28;20049;-60
2022/01/28 02:23:43;;;;;;;19.75;9.55;;;;;;;-0.61;59.96;100068.44;3117668;28;20218;-60
2022/01/28 02:25:26;;;;;;;16.45;8.68;;;;;;;-0.58;59.82;100067.59;3123748;28;20075;-60
2022/01/28 02:26:58;;;;;;;15.48;8.15;;;;;;;-0.61;59.96;100062.47;3120319;28;20100;-60
2022/01/28 02:28:32;;;;;;;21.52;8.55;;;;;;;-0.60;59.98;100061.63;3121594;28;20236;-60
2022/01/28 02:30:06;;;;;;;15.52;7.70;;;;;;;-0.61;59.86;100063.31;3115220;28;20057;-60
2022/01/28 02:31:38;;;;;;;18.52;8.70;;;;;;;-0.61;59.71;100065.03;3118178;28;20515;-60
2022/01/28 02:33:13;;;;;;;17.70;9.05;;;;;;;-0.63;59.72;100056.47;3121970;28;20110;-60
2022/01/28 02:34:45;;;;;;;14.43;7.55;;;;;;;-0.64;59.66;100059.91;3116577;28;20530;-60
2022/01/28 02:36:18;;;;;;;17.10;8.27;;;;;;;-0.60;59.65;100051.38;3125829;28;20226;-60
2022/01/28 02:37:50;;;;;;;;;;;;;;;-0.81;59.58;100050.44;3125888;28;20601;-60
2022/01/28 02:39:22;;;;;;;18.15;8.82;;;;;;;-0.75;59.85;100053.03;3120458;28;20030;-60
2022/01/28 02:40:56;;;;;;;17.95;8.38;;;;;;;-0.70;59.78;100048.78;3126890;28;20176;-60
2022/01/28 02:42:44;;;;;;;14.93;8.10;;;;;;;-0.69;59.56;100039.41;3116749;28;20136;-60
2022/01/28 02:44:21;;;;;;;17.17;8.32;;;;;;;-0.71;59.69;100041.97;3124854;28;20137;-60
2022/01/28 02:45:55;;;;;;;19.13;8.60;;;;;;;-1.06;59.71;99979.59;3121750;28;20071;-60
2022/01/28 02:47:34;;;;;;;20.30;8.02;;;;;;;-0.75;59.68;100021.47;3119154;28;20807;-60
2022/01/28 02:49:09;;;;;;;19.15;7.82;;;;;;;-0.75;59.51;100019.78;3126915;28;20598;-60
2022/01/28 02:50:47;;;;;;;16.35;7.63;;;;;;;-0.75;59.76;100017.22;3116689;28;20084;-60
2022/01/28 02:52:30;;;;;;;17.15;8.30;;;;;;;-0.77;59.69;100015.50;3124507;28;20132;-60
2022/01/28 02:54:12;;;;;;;18.33;9.00;;;;;;;-0.80;59.73;100018.03;3122196;28;20057;-60
2022/01/28 02:55:44;;;;;;;16.73;7.75;;;;;;;-0.82;59.93;100015.50;3119685;28;20053;-60
2022/01/28 02:57:22;;;;;;;15.48;7.72;;;;;;;-0.82;59.86;100023.16;3128407;28;20053;-60
2022/01/28 02:58:54;;;;;;;21.02;8.43;;;;;;;-0.84;59.76;100022.28;3123098;28;20053;-61
2022/01/28 03:00:25;;;;;;;15.77;7.40;;;;;;;-0.84;59.72;100029.97;3123264;28;20099;-60
2022/01/28 03:01:57;;;;;;;16.25;7.88;;;;;;;-0.87;59.61;100024.84;3122991;28;20425;-61
2022/01/28 03:03:29;;;;;;;14.02;7.50;;;;;;;-0.87;59.77;100035.06;3117709;28;20128;-61
2022/01/28 03:05:29;;;;;;;16.33;7.50;;;;;;;-0.90;59.70;100032.50;3126995;28;20094;-61
2022/01/28 03:07:00;;;;;;;18.02;7.93;;;;;;;-0.95;59.83;100041.84;3116776;28;20053;-61
2022/01/28 03:08:34;;;;;;;20.00;8.50;;;;;;;-0.95;59.82;100039.28;3123324;28;20155;-60
2022/01/28 03:12:12;;;;;;;15.98;8.02;;;;;;;-1.11;60.33;100038.34;3103508;28;19931;-60
2022/01/28 03:14:01;;;;;;;19.02;9.45;;;;;;;-1.07;60.08;100034.94;3121296;28;20486;-61
2022/01/28 03:15:33;;;;;;;18.15;9.68;;;;;;;-1.07;60.14;100034.09;3119009;28;20258;-61
2022/01/28 03:17:13;;;;;;;22.42;10.52;;;;;;;-1.06;59.94;100036.69;3126862;28;20103;-61
2022/01/28 03:18:50;;;;;;;17.45;9.35;;;;;;;-1.05;59.91;100032.41;3116464;28;20597;-61
2022/01/28 03:20:36;;;;;;;18.50;8.35;;;;;;;-1.06;60.00;100034.13;3122047;28;20044;-61
2022/01/28 03:22:09;;;;;;;16.55;8.73;;;;;;;-1.06;59.84;100040.94;3120391;28;20060;-61
2022/01/28 03:23:42;;;;;;;25.23;9.38;;;;;;;-1.06;59.96;100039.22;3124202;28;20515;-62
2022/01/28 03:25:15;;;;;;;;;;;;;;;-1.23;60.04;100040.84;3125904;28;20068;-62
2022/01/28 03:26:50;;;;;;;16.88;7.80;;;;;;;-1.18;60.17;100037.47;3116089;28;20478;-62
2022/01/28 03:28:22;;;;;;;17.33;7.90;;;;;;;-1.17;60.31;100041.72;3122869;28;20130;-61
2022/01/28 03:29:54;;;;;;;18.55;8.80;;;;;;;-1.15;60.16;100044.28;3120806;28;20069;-61
2022/01/28 03:31:27;;;;;;;17.58;8.35;;;;;;;-1.15;60.21;100037.47;3125482;28;20045;-61
2022/01/28 03:32:59;;;;;;;22.17;10.32;;;;;;;-1.11;60.18;100042.59;3123657;28;20053;-61
2022/01/28 03:34:31;;;;;;;35.38;12.13;;;;;;;-1.12;60.29;100033.22;3125484;28;20045;-61
2022/01/28 03:36:03;;;;;;;26.00;10.80;;;;;;;-1.11;60.28;100034.94;3123614;28;20049;-61
2022/01/28 03:37:35;;;;;;;29.65;11.65;;;;;;;-1.13;60.41;100034.06;3126429;28;20049;-61
2022/01/28 03:39:10;;;;;;;26.10;11.55;;;;;;;-1.13;60.55;100040.03;3115958;28;20061;-61
2022/01/28 03:40:42;;;;;;;32.40;12.73;;;;;;;-1.15;60.48;100040.03;3123358;28;20439;-61
2022/01/28 03:42:14;;;;;;;28.58;11.57;;;;;;;-1.13;60.43;100040.03;3121458;28;20061;-60
2022/01/28 03:43:47;;;;;;;30.75;13.13;;;;;;;-1.14;60.40;100040.88;3119408;28;20049;-61
2022/01/28 03:45:19;;;;;;;34.00;13.30;;;;;;;-1.16;60.42;100032.34;3124038;28;20049;-62
2022/01/28 03:46:51;;;;;;;29.95;12.88;;;;;;;-1.17;60.60;100023.81;3125094;28;20045;-61
2022/01/28 03:48:23;;;;;;;34.65;14.20;;;;;;;-1.16;60.59;100028.09;3121873;28;20862;-61
2022/01/28 03:49:55;;;;;;;33.60;13.20;;;;;;;-1.15;60.56;100021.28;3126264;28;20476;-61
2022/01/28 03:51:27;;;;;;;33.60;12.48;;;;;;;-1.18;60.59;100022.13;3116905;28;20144;-61
2022/01/28 03:52:59;;;;;;;27.65;12.27;;;;;;;-1.16;60.67;100024.69;3122154;28;20052;-61
2022/01/28 03:54:32;;;;;;;24.67;12.13;;;;;;;-1.18;60.66;100022.13;3126852;28;20055;-61
2022/01/28 03:56:04;;;;;;;;;;;;;;;-1.38;60.83;100026.25;3121223;28;20049;-61
2022/01/28 03:57:35;;;;;;;26.73;10.70;;;;;;;-1.35;61.16;100026.28;3125248;28;19970;-61
2022/01/28 03:59:07;;;;;;;27.63;11.63;;;;;;;-1.27;61.10;100016.09;3118845;28;20057;-61
2022/01/28 04:00:38;;;;;;;25.52;11.13;;;;;;;-1.25;60.88;100015.25;3121525;28;20053;-61
2022/01/28 04:02:10;;;;;;;29.73;11.80;;;;;;;-1.23;60.98;100012.72;3120344;28;20053;-61
2022/01/28 04:03:48;;;;;;;27.60;11.57;;;;;;;-1.22;60.85;100009.31;3116871;28;20159;-61
2022/01/28 04:12:41;;;;;;;34.03;13.82;;;;;;;-1.31;61.03;100011.81;3122231;28;20053;-62
2022/01/28 04:14:17;;;;;;;32.88;14.75;;;;;;;-1.30;60.85;100016.94;3121628;28;20057;-60
2022/01/28 04:16:04;;;;;;;35.30;13.77;;;;;;;-1.28;61.11;100014.38;3119976;28;20485;-60
2022/01/28 04:17:35;;;;;;;35.25;14.18;;;;;;;-1.30;60.99;100013.50;3123781;28;20411;-61
2022/01/28 04:19:08;;;;;;;28.48;13.02;;;;;;;-1.29;60.92;100016.09;3116117;28;20045;-61
2022/01/28 04:20:40;;;;;;;30.83;13.63;;;;;;;-1.29;61.10;100013.53;3120734;28;20067;-64
2022/01/28 04:22:12;;;;;;;32.95;15.20;;;;;;;-1.31;61.08;100017.78;3123408;28;20061;-61
2022/01/28 04:23:43;;;;;;;30.50;13.63;;;;;;;-1.30;61.03;100018.63;3116264;28;20180;-61
2022/01/28 04:25:15;;;;;;;30.10;14.07;;;;;;;-1.30;61.10;100018.63;3122495;28;20048;-62
2022/01/28 04:26:49;;;;;;;34.67;14.70;;;;;;;-1.30;61.25;100014.38;3126884;28;20110;-61
2022/01/28 04:28:21;;;;;;;;;;;;;;;-1.51;61.34;100012.56;3124802;28;20134;-60
2022/01/28 04:29:53;;;;;;;57.72;21.85;;;;;;;-1.46;61.41;100005.75;3124893;28;19925;-61
2022/01/28 04:31:24;;;;;;;56.20;20.15;;;;;;;-1.45;61.40;100004.94;3115503;28;20156;-60
2022/01/28 04:32:57;;;;;;;57.35;21.15;;;;;;;-1.44;61.51;100000.66;3120377;28;20771;-61
2022/01/28 04:34:28;;;;;;;58.05;21.25;;;;;;;-1.45;61.52;99991.28;3121173;28;20815;-60
2022/01/28 04:36:00;;;;;;;49.28;19.42;;;;;;;-1.47;61.56;99991.28;3115840;28;20152;-61
2022/01/28 04:37:40;;;;;;;39.50;16.83;;;;;;;-1.47;61.71;99986.19;3122812;28;20053;-61
2022/01/28 04:39:19;;;;;;;36.03;15.77;;;;;;;-1.49;61.75;99994.66;3119132;28;20053;-61
2022/01/28 04:41:01;;;;;;;37.40;15.25;;;;;;;-1.52;61.73;99992.09;3120861;28;20126;-61
2022/01/28 04:42:51;;;;;;;28.10;13.38;;;;;;;-1.52;61.89;99998.06;3124577;28;20146;-62
2022/01/28 04:44:31;;;;;;;33.60;13.88;;;;;;;-1.56;62.01;100003.16;3118497;28;20557;-61
2022/01/28 04:46:09;;;;;;;38.92;18.67;;;;;;;-1.58;61.93;99992.06;3124349;28;20167;-60
2022/01/28 04:47:48;;;;;;;53.03;22.20;;;;;;;-1.61;62.02;99991.19;3116604;28;20387;-61
2022/01/28 04:49:26;;;;;;;52.22;23.02;;;;;;;-1.62;61.89;99994.59;3123463;28;20053;-61
2022/01/28 04:51:11;;;;;;;51.30;21.25;;;;;;;-1.65;61.96;99991.16;3126418;28;20064;-60
2022/01/28 04:54:54;;;;;;;47.97;20.25;;;;;;;-1.71;61.76;99984.31;3119427;28;20060;-61
2022/01/28 04:56:50;;;;;;;43.85;20.00;;;;;;;-1.77;61.80;99976.59;3120729;28;20604;-61
2022/01/28 04:58:37;;;;;;;34.38;16.55;;;;;;;-1.79;61.81;99982.53;3122488;28;20080;-61
2022/01/28 05:00:18;;;;;;;37.13;17.23;;;;;;;-1.79;61.88;99978.28;3118452;28;20710;-62
2022/01/28 05:02:12;;;;;;;34.97;16.23;;;;;;;-1.79;61.82;99980.00;3123569;28;20049;-61
2022/01/28 05:03:56;;;;;;;;;;;;;;;-2.01;61.95;99987.47;3115364;28;20130;-61
2022/01/28 05:05:51;;;;;;;40.78;17.42;;;;;;;-1.99;62.13;99967.91;3121709;28;19924;-61
2022/01/28 05:07:56;;;;;;;36.40;17.20;;;;;;;-1.95;62.01;99963.69;3114925;28;20284;-60
2022/01/28 05:11:40;;;;;;;45.45;18.48;;;;;;;-1.96;62.12;99978.13;3117027;28;20057;-60
2022/01/28 05:13:38;;;;;;;40.72;16.40;;;;;;;-1.99;62.08;99969.59;3121983;28;20518;-61
2022/01/28 05:24:41;;;;;;;30.30;13.10;;;;;;;-2.09;62.17;99974.63;3124363;28;20430;-61
2022/01/28 05:26:24;;;;;;;32.05;13.00;;;;;;;-2.09;62.15;99982.28;3124934;28;20449;-61
2022/01/28 05:27:56;;;;;;;32.83;14.52;;;;;;;-2.08;61.95;99981.44;3115823;28;20110;-61
2022/01/28 05:29:28;;;;;;;35.92;15.05;;;;;;;-2.06;62.01;99986.56;3121418;28;20599;-63
2022/01/28 05:31:02;;;;;;;33.03;14.85;;;;;;;-2.04;62.03;99978.91;3123249;28;20060;-60
2022/01/28 05:32:34;;;;;;;30.15;14.63;;;;;;;-2.04;62.09;99976.38;3117715;28;20213;-63
2022/01/28 05:34:06;;;;;;;33.88;15.45;;;;;;;-2.03;62.11;99980.66;3123295;28;20122;-61
2022/01/28 05:35:37;;;;;;;27.50;13.32;;;;;;;-2.03;62.17;99986.59;3119463;28;20065;-60
2022/01/28 05:37:10;;;;;;;28.17;13.93;;;;;;;-2.03;62.29;99980.66;3120986;28;20053;-62
2022/01/28 05:38:41;;;;;;;28.08;13.13;;;;;;;-2.02;62.07;99988.28;3123944;28;20399;-60
2022/01/28 05:40:13;;;;;;;29.60;14.18;;;;;;;-2.02;62.09;99979.78;3115345;28;20049;-60
2022/01/28 05:41:45;;;;;;;31.88;14.27;;;;;;;-2.02;62.17;99977.25;3123514;28;20049;-62
2022/01/28 05:43:17;;;;;;;32.78;14.70;;;;;;;-2.02;62.26;99977.25;3117040;28;20053;-61
2022/01/28 05:44:49;;;;;;;38.78;14.93;;;;;;;-2.04;62.22;99974.69;3120463;28;20490;-61
2022/01/28 05:46:27;;;;;;;34.55;15.55;;;;;;;-2.00;62.20;99976.41;3122567;28;20581;-61
2022/01/28 05:47:59;;;;;;;35.97;15.75;;;;;;;-2.01;62.02;99984.03;3117945;28;20114;-61
2022/01/28 05:49:31;;;;;;;37.80;16.48;;;;;;;-2.01;62.27;99976.38;3124222;28;20045;-61
2022/01/28 05:51:03;;;;;;;31.90;14.97;;;;;;;-2.01;62.38;99977.28;3119108;28;20049;-61
2022/01/28 05:52:35;;;;;;;29.25;14.32;;;;;;;-2.28;62.44;99931.94;3115371;28;20462;-62
2022/01/28 05:54:07;;;;;;;32.75;14.35;;;;;;;-2.03;62.55;99973.84;3124504;28;20041;-62
2022/01/28 05:55:40;;;;;;;34.25;14.82;;;;;;;-1.96;62.58;99984.94;3116534;28;20049;-62
2022/01/28 05:57:11;;;;;;;39.38;16.13;;;;;;;-1.95;62.54;99987.53;3120940;28;20053;-62
2022/01/28 05:58:43;;;;;;;44.65;19.20;;;;;;;-1.92;62.57;99991.81;3122679;28;20114;-60
2022/01/28 06:00:17;;;;;;;63.40;21.42;;;;;;;-1.90;62.50;99990.09;3114606;28;20065;-60
2022/01/28 06:01:50;;;;;;;65.78;25.15;;;;;;;-1.90;62.54;100003.72;3121123;28;20080;-60
2022/01/28 06:03:22;;;;;;;72.28;30.50;;;;;;;-1.90;62.54;100000.31;3119359;28;20062;-60
2022/01/28 06:04:54;;;;;;;58.55;24.55;;;;;;;-1.88;62.60;99998.63;3123548;28;20127;-59
2022/01/28 06:06:26;;;;;;;50.08;19.77;;;;;;;-1.88;62.60;99990.97;3123395;28;20052;-62
2022/01/28 06:07:57;;;;;;;46.17;20.65;;;;;;;-1.87;62.65;99997.78;3126734;28;20052;-61
2022/01/28 06:09:29;;;;;;;44.88;19.27;;;;;;;-1.90;62.75;99993.50;3126643;28;20871;-62
2022/01/28 06:11:01;;;;;;;47.03;18.17;;;;;;;-1.88;62.83;99998.63;3123676;28;20120;-61
2022/01/28 06:12:39;;;;;;;43.22;18.80;;;;;;;-1.88;62.74;99996.94;3117667;28;20080;-61
2022/01/28 06:14:11;;;;;;;47.90;21.05;;;;;;;-1.89;62.70;99995.22;3126232;28;20052;-61
2022/01/28 06:15:45;;;;;;;45.08;20.58;;;;;;;-1.86;62.76;100004.63;3125913;28;20056;-60
2022/01/28 06:17:18;;;;;;;47.88;21.52;;;;;;;-1.82;62.79;100011.44;3125660;28;20049;-61
2022/01/28 06:18:50;;;;;;;54.08;21.27;;;;;;;-1.81;62.79;100007.19;3132447;28;20048;-61
2022/01/28 06:20:22;;;;;;;78.45;27.08;;;;;;;-1.78;62.87;100007.22;3123110;28;20061;-61
2022/01/28 06:21:53;;;;;;;157.35;52.15;;;;;;;-1.78;62.75;100002.09;3129121;28;20045;-61
2022/01/28 06:23:25;;;;;;;83.05;30.85;;;;;;;-1.73;62.71;100006.41;3131108;28;20594;-61
2022/01/28 06:24:56;;;;;;;53.60;23.73;;;;;;;-1.77;62.60;100003.84;3131834;28;20102;-61
2022/01/28 06:26:28;;;;;;;47.08;20.98;;;;;;;-1.69;62.67;100008.13;3130381;28;20436;-60
2022/01/28 06:28:00;;;;;;;47.00;20.42;;;;;;;-1.68;62.78;100001.34;3133682;28;20095;-60
2022/01/28 06:29:32;;;;;;;51.92;21.08;;;;;;;-1.67;62.60;100001.34;3129375;28;20494;-60
2022/01/28 06:31:04;;;;;;;53.75;20.58;;;;;;;-1.64;62.64;99998.81;3130572;28;20064;-61
2022/01/28 06:32:37;;;;;;;55.53;21.67;;;;;;;-1.62;62.57;100003.94;3133401;28;20073;-59
2022/01/28 06:34:09;;;;;;;58.28;22.13;;;;;;;-1.61;62.43;100001.41;3129033;28;20056;-59
2022/01/28 06:35:40;;;;;;;60.38;21.88;;;;;;;-1.56;62.42;100004.00;3129309;28;20123;-60
2022/01/28 06:37:12;;;;;;;46.97;21.15;;;;;;;-1.51;62.40;99997.22;3131658;28;20056;-59
2022/01/28 06:38:44;;;;;;;47.20;21.88;;;;;;;-1.49;62.64;100003.19;3130562;28;20049;-59
2022/01/28 06:40:17;;;;;;;46.97;20.48;;;;;;;-1.35;62.55;100008.38;3133694;28;20053;-60
2022/01/28 06:41:49;;;;;;;50.72;20.75;;;;;;;-1.09;62.93;100010.25;3127963;28;20167;-60
2022/01/28 06:43:21;;;;;;;37.13;19.77;;;;;;;-0.81;63.12;99999.28;3131194;28;20053;-61
2022/01/28 06:44:53;;;;;;;42.88;18.33;;;;;;;-0.47;62.91;100002.00;3132154;28;20053;-62
2022/01/28 06:46:26;;;;;;;43.72;20.38;;;;;;;-0.16;62.75;100010.56;3127913;28;20053;-60
2022/01/28 06:47:59;;;;;;;40.15;18.83;;;;;;;0.17;62.22;100011.47;3132766;28;20072;-61
2022/01/28 06:49:31;;;;;;;42.38;18.70;;;;;;;0.48;61.74;100011.47;3129269;28;20457;-61
2022/01/28 06:51:03;;;;;;;52.10;22.92;;;;;;;0.79;61.20;100007.13;3132252;28;20041;-59
2022/01/28 06:52:36;;;;;;;49.65;22.67;;;;;;;1.05;60.33;100013.06;3131696;28;20049;-59
2022/01/28 06:54:07;;;;;;;56.28;24.92;;;;;;;1.26;60.06;100013.84;3129496;28;20438;-61
2022/01/28 06:55:40;;;;;;;55.65;22.60;;;;;;;1.51;59.35;100006.88;3127570;28;20049;-60
2022/01/28 06:57:12;;;;;;;52.10;23.42;;;;;;;1.65;58.92;99992.25;3123683;28;20098;-61
2022/01/28 06:58:43;;;;;;;58.78;24.00;;;;;;;1.97;58.26;99999.75;3130582;28;20037;-61
2022/01/28 07:00:16;;;;;;;52.42;24.60;;;;;;;2.19;57.55;100000.47;3125205;28;20041;-60
2022/01/28 07:01:48;;;;;;;57.37;26.13;;;;;;;2.38;57.02;100001.16;3126282;28;20379;-60
2022/01/28 07:03:21;;;;;;;56.67;25.00;;;;;;;2.60;56.49;100001.78;3128926;28;20055;-60
2022/01/28 07:04:53;;;;;;;49.35;24.95;;;;;;;2.78;55.99;99990.50;3129111;28;20471;-60
2022/01/28 07:06:25;;;;;;;57.15;25.52;;;;;;;2.98;55.30;99992.84;3129040;28;20057;-62
2022/01/28 07:07:57;;;;;;;53.90;25.27;;;;;;;3.16;54.55;99986.63;3131251;28;20049;-60
2022/01/28 07:09:29;;;;;;;61.45;26.75;;;;;;;3.32;54.03;99988.16;3130517;28;20459;-61
2022/01/28 07:11:01;;;;;;;54.65;25.58;;;;;;;3.47;53.47;99986.25;3128768;28;20732;-63
2022/01/28 07:12:33;;;;;;;50.03;24.85;;;;;;;3.62;52.78;99981.75;3132215;28;20118;-60
2022/01/28 07:14:05;;;;;;;49.03;23.88;;;;;;;3.74;52.33;99975.56;3130040;28;20490;-60
2022/01/28 07:15:37;;;;;;;47.65;21.88;;;;;;;3.84;51.77;99966.81;3131540;28;20053;-60
2022/01/28 07:17:09;;;;;;;39.80;21.67;;;;;;;3.96;51.43;99973.50;3130614;28;20045;-61
2022/01/28 07:18:42;;;;;;;44.50;22.42;;;;;;;4.10;50.77;99979.31;3124830;28;20356;-60
2022/01/28 07:20:14;;;;;;;45.83;20.75;;;;;;;4.20;50.50;99980.03;3124490;28;20057;-60
2022/01/28 07:21:46;;;;;;;37.03;19.75;;;;;;;4.31;49.95;99974.69;3123278;28;20053;-60
2022/01/28 07:23:18;;;;;;;38.53;19.15;;;;;;;4.41;49.53;99976.25;3125082;28;20063;-60
2022/01/28 07:24:50;;;;;;;35.20;18.27;;;;;;;4.51;49.24;99984.66;3124144;28;20049;-60
2022/01/28 07:26:22;;;;;;;34.97;17.90;;;;;;;4.63;48.80;99988.75;3122941;28;20053;-60
2022/01/28 07:27:54;;;;;;;38.47;20.15;;;;;;;4.71;48.49;99981.72;3126687;28;20110;-59
2022/01/28 07:29:30;;;;;;;39.97;18.80;;;;;;;4.82;48.31;99979.78;3125492;28;20413;-59
2022/01/28 07:31:02;;;;;;;51.38;23.67;;;;;;;4.79;48.03;99954.03;3125324;28;20587;-59
2022/01/28 07:32:34;;;;;;;33.90;16.95;;;;;;;5.07;47.43;99977.59;3125790;28;20886;-60
2022/01/28 07:34:08;;;;;;;36.13;17.55;;;;;;;5.21;47.01;99969.59;3123473;28;20053;-59
2022/01/28 07:35:40;;;;;;;29.88;15.45;;;;;;;5.36;46.71;99963.25;3126523;28;20092;-62
2022/01/28 07:37:12;;;;;;;29.55;15.23;;;;;;;5.58;46.17;99969.63;3125172;28;20069;-62
2022/01/28 07:38:44;;;;;;;29.30;15.32;;;;;;;5.77;45.63;99957.16;3123188;28;20503;-62
2022/01/28 07:40:16;;;;;;;29.23;15.45;;;;;;;6.00;45.15;99966.97;3126527;28;20159;-62
2022/01/28 07:41:47;;;;;;;32.10;15.68;;;;;;;6.23;44.56;99974.19;3122275;28;20045;-62
2022/01/28 07:43:19;;;;;;;34.97;15.15;;;;;;;6.38;44.35;99971.22;3124204;28;20049;-61
2022/01/28 07:44:51;;;;;;;33.13;16.50;;;;;;;6.56;43.87;99974.22;3125617;28;20053;-62
2022/01/28 07:46:23;;;;;;;33.10;16.35;;;;;;;6.64;43.43;99967.13;3124402;28;20445;-62
2022/01/28 07:47:55;;;;;;;29.67;15.77;;;;;;;6.72;43.04;99967.75;3125331;28;20104;-61
2022/01/28 07:49:28;;;;;;;35.92;17.30;;;;;;;6.78;42.98;99971.94;3120428;28;20575;-60
2022/01/28 07:51:00;;;;;;;35.70;16.40;;;;;;;6.77;42.87;99963.31;3124099;28;20049;-61
2022/01/28 07:52:32;;;;;;;32.42;17.10;;;;;;;6.84;42.54;99961.41;3126482;28;20550;-61
2022/01/28 07:54:05;;;;;;;28.75;16.70;;;;;;;6.59;42.23;99905.13;3124586;28;20579;-61
2022/01/28 07:55:37;;;;;;;28.48;14.18;;;;;;;6.87;41.96;99952.72;3124640;28;20075;-60
2022/01/28 07:57:08;;;;;;;23.98;12.82;;;;;;;6.94;41.69;99949.06;3124001;28;20079;-61
2022/01/28 07:58:40;;;;;;;22.83;12.55;;;;;;;6.84;41.37;99932.94;3123513;28;20049;-61
2022/01/28 08:00:14;;;;;;;24.73;13.00;;;;;;;7.05;41.30;99957.38;3126534;28;20710;-61
2022/01/28 08:01:46;;;;;;;21.58;12.15;;;;;;;7.11;41.19;99951.19;3121204;28;20046;-61
2022/01/28 08:03:18;;;;;;;29.08;14.38;;;;;;;7.16;40.93;99957.06;3125792;28;20110;-61